createdAt,value
2023-12-23T00:01:14.567Z,0.55
2023-12-23T00:03:41.316Z,2.85
2023-12-23T00:06:08.198Z,0.38
2023-12-23T00:08:35.080Z,0.63
2023-12-23T00:11:01.866Z,3.38
2023-12-23T00:13:29.049Z,4.05
2023-12-23T00:15:55.697Z,3.00
2023-12-23T00:18:22.563Z,2.10
2023-12-23T00:20:49.639Z,1.65
2023-12-23T00:23:16.406Z,3.30
2023-12-23T00:25:43.234Z,1.75
2023-12-23T00:28:10.181Z,5.10
2023-12-23T00:30:36.932Z,3.92
2023-12-23T00:33:06.453Z,2.15
2023-12-23T00:35:33.444Z,4.15
2023-12-23T00:38:02.253Z,2.20
2023-12-23T00:40:28.925Z,5.18
2023-12-23T00:42:55.875Z,6.13
2023-12-23T00:45:22.522Z,6.05
2023-12-23T00:47:49.316Z,5.88
2023-12-23T00:50:16.304Z,3.40
2023-12-23T00:52:43.106Z,10.02
2023-12-23T00:55:09.856Z,6.25
2023-12-23T00:57:36.584Z,3.80
2023-12-23T01:00:04.236Z,7.82
2023-12-23T01:02:30.956Z,5.13
2023-12-23T01:04:57.699Z,1.70
2023-12-23T01:07:24.448Z,5.97
2023-12-23T01:09:51.214Z,4.20
2023-12-23T01:12:18.243Z,7.20
2023-12-23T01:14:45.017Z,4.85
2023-12-23T01:17:11.801Z,4.68
2023-12-23T01:19:38.601Z,4.47
2023-12-23T01:22:05.401Z,3.88
2023-12-23T01:24:32.157Z,2.38
2023-12-23T01:26:58.809Z,2.72
2023-12-23T01:29:25.480Z,34.42
2023-12-23T01:31:52.381Z,5.63
2023-12-23T01:34:19.077Z,9.52
2023-12-23T01:36:45.729Z,5.47
2023-12-23T01:39:12.440Z,6.38
2023-12-23T01:41:39.145Z,2.25
2023-12-23T01:44:05.875Z,11.23
2023-12-23T01:46:33.545Z,9.98
2023-12-23T01:49:02.199Z,5.30
2023-12-23T01:51:29.526Z,4.50
2023-12-23T01:54:04.575Z,6.95
2023-12-23T01:56:35.554Z,7.13
2023-12-23T01:59:04.226Z,4.70
2023-12-23T02:01:33.253Z,4.88
2023-12-23T02:04:00.034Z,8.82
2023-12-23T02:06:26.746Z,7.85
2023-12-23T02:08:53.747Z,2.08
2023-12-23T02:11:43.661Z,5.88
2023-12-23T02:14:37.846Z,6.78
2023-12-23T02:17:04.781Z,4.25
2023-12-23T02:19:31.540Z,3.00
2023-12-23T02:21:58.342Z,6.25
2023-12-23T02:24:25.101Z,5.78
2023-12-23T02:27:00.021Z,8.65
2023-12-23T02:29:28.298Z,2.97
2023-12-23T02:31:55.770Z,4.68
2023-12-23T02:34:23.240Z,1.92
2023-12-23T02:36:50.025Z,3.55
2023-12-23T02:39:16.971Z,7.97
2023-12-23T02:41:43.685Z,1.65
2023-12-23T02:44:10.452Z,5.45
2023-12-23T02:46:38.711Z,2.40
2023-12-23T02:49:05.597Z,3.03
2023-12-23T02:51:32.344Z,5.05
2023-12-23T02:53:58.994Z,2.08
2023-12-23T02:56:25.717Z,2.05
2023-12-23T02:58:55.319Z,4.47
2023-12-23T03:01:22.643Z,5.72
2023-12-23T03:03:49.346Z,1.10
2023-12-23T03:06:18.840Z,5.68
2023-12-23T03:08:45.621Z,6.60
2023-12-23T03:11:12.387Z,6.93
2023-12-23T03:13:39.188Z,7.10
2023-12-23T03:16:18.861Z,11.52
2023-12-23T03:18:46.902Z,3.33
2023-12-23T03:21:13.858Z,6.18
2023-12-23T03:23:40.673Z,5.18
2023-12-23T03:26:09.213Z,5.30
2023-12-23T03:28:35.974Z,7.18
2023-12-23T03:31:02.619Z,5.65
2023-12-23T03:33:29.567Z,10.20
2023-12-23T03:36:00.001Z,8.15
2023-12-23T03:38:27.533Z,8.75
2023-12-23T03:40:54.523Z,12.93
2023-12-23T03:43:21.203Z,11.20
2023-12-23T03:45:47.991Z,11.02
2023-12-23T03:48:14.746Z,8.05
2023-12-23T03:50:41.928Z,11.63
2023-12-23T03:53:08.699Z,8.38
2023-12-23T03:55:35.473Z,8.18
2023-12-23T03:58:04.773Z,13.75
2023-12-23T04:00:32.180Z,8.27
2023-12-23T04:02:59.269Z,8.15
2023-12-23T04:05:25.985Z,11.60
2023-12-23T04:07:52.829Z,10.63
2023-12-23T04:10:19.736Z,11.40
2023-12-23T04:12:46.560Z,13.63
2023-12-23T04:15:13.342Z,11.82
2023-12-23T04:17:44.081Z,20.52
2023-12-23T04:20:11.479Z,11.00
2023-12-23T04:22:38.232Z,17.63
2023-12-23T04:25:05.414Z,14.68
2023-12-23T04:27:32.209Z,13.13
2023-12-23T04:29:58.904Z,10.93
2023-12-23T04:32:25.736Z,18.73
2023-12-23T04:34:52.483Z,13.52
2023-12-23T04:37:19.156Z,20.85
2023-12-23T04:39:45.804Z,17.73
2023-12-23T04:42:12.512Z,18.58
2023-12-23T04:44:39.158Z,13.20
2023-12-23T04:47:06.302Z,16.95
2023-12-23T04:49:32.969Z,16.60
2023-12-23T04:51:59.593Z,13.88
2023-12-23T04:54:26.948Z,18.77
2023-12-23T04:56:53.753Z,17.13
2023-12-23T04:59:20.479Z,17.13
2023-12-23T05:01:47.568Z,24.65
2023-12-23T05:04:14.345Z,21.73
2023-12-23T05:06:41.088Z,22.85
2023-12-23T05:09:07.729Z,18.13
2023-12-23T05:11:34.416Z,22.15
2023-12-23T05:14:01.238Z,22.80
2023-12-23T05:16:27.953Z,15.32
2023-12-23T05:18:54.756Z,13.73
2023-12-23T05:21:22.855Z,16.02
2023-12-23T05:23:49.721Z,13.77
2023-12-23T05:26:23.019Z,20.20
2023-12-23T05:28:49.835Z,19.40
2023-12-23T05:31:16.576Z,16.88
2023-12-23T05:33:44.254Z,25.38
2023-12-23T05:36:11.093Z,17.98
2023-12-23T05:38:37.793Z,12.35
2023-12-23T05:41:04.643Z,17.13
2023-12-23T05:43:31.362Z,18.88
2023-12-23T05:45:58.037Z,11.50
2023-12-23T05:48:24.801Z,19.65
2023-12-23T05:50:51.670Z,23.80
2023-12-23T05:53:18.377Z,9.80
2023-12-23T05:55:45.349Z,15.30
2023-12-23T05:58:12.072Z,18.02
2023-12-23T06:00:39.301Z,12.80
2023-12-23T06:03:06.047Z,11.63
2023-12-23T06:05:32.960Z,15.00
2023-12-23T06:07:59.906Z,19.20
2023-12-23T06:10:26.677Z,14.80
2023-12-23T06:12:53.557Z,14.38
2023-12-23T06:15:20.320Z,7.85
2023-12-23T06:17:49.511Z,12.18
2023-12-23T06:20:16.607Z,13.00
2023-12-23T06:22:43.368Z,12.52
2023-12-23T06:25:10.052Z,16.85
2023-12-23T06:27:36.814Z,11.27
2023-12-23T06:30:04.050Z,13.60
2023-12-23T06:32:31.101Z,15.43
2023-12-23T06:34:57.935Z,15.05
2023-12-23T06:37:24.627Z,13.15
2023-12-23T06:39:51.409Z,19.15
2023-12-23T06:42:19.022Z,20.42
2023-12-23T06:44:45.758Z,17.65
2023-12-23T06:47:12.436Z,16.80
2023-12-23T06:49:39.261Z,20.30
2023-12-23T06:52:07.195Z,16.52
2023-12-23T06:54:33.848Z,20.23
2023-12-23T06:57:00.616Z,13.63
2023-12-23T06:59:27.327Z,19.10
2023-12-23T07:01:54.024Z,26.13
2023-12-23T07:04:20.741Z,16.67
2023-12-23T07:06:47.402Z,21.52
2023-12-23T07:09:14.173Z,12.93
2023-12-23T07:11:40.985Z,15.70
2023-12-23T07:14:07.733Z,17.20
2023-12-23T07:16:34.540Z,18.48
2023-12-23T07:19:01.340Z,13.30
2023-12-23T07:21:28.074Z,20.00
2023-12-23T07:23:54.751Z,16.15
2023-12-23T07:26:23.275Z,11.65
2023-12-23T07:28:50.110Z,13.30
2023-12-23T07:31:16.817Z,14.13
2023-12-23T07:33:44.275Z,15.48
2023-12-23T07:36:11.034Z,13.07
2023-12-23T07:38:37.725Z,16.83
2023-12-23T07:41:04.561Z,21.77
2023-12-23T07:43:31.282Z,12.00
2023-12-23T07:45:57.985Z,9.40
2023-12-23T07:48:24.688Z,18.52
2023-12-23T07:50:51.651Z,14.55
2023-12-23T07:53:18.412Z,18.45
2023-12-23T07:55:45.173Z,14.00
2023-12-23T07:58:11.872Z,13.98
2023-12-23T08:00:38.554Z,14.85
2023-12-23T08:03:05.794Z,17.33
2023-12-23T08:05:34.621Z,12.75
2023-12-23T08:08:01.403Z,6.95
2023-12-23T08:10:28.093Z,12.15
2023-12-23T08:12:55.006Z,16.13
2023-12-23T08:15:21.740Z,11.52
2023-12-23T08:17:48.586Z,10.95
2023-12-23T08:20:15.671Z,15.40
2023-12-23T08:22:42.891Z,12.48
2023-12-23T08:25:10.242Z,8.63
2023-12-23T08:27:39.430Z,6.03
2023-12-23T08:30:07.997Z,11.98
2023-12-23T08:32:35.099Z,7.82
2023-12-23T08:35:02.762Z,8.95
2023-12-23T08:37:29.660Z,12.40
2023-12-23T08:39:56.594Z,8.35
2023-12-23T08:42:23.255Z,10.30
2023-12-23T08:44:50.816Z,14.63
2023-12-23T08:47:18.647Z,19.63
2023-12-23T08:49:45.381Z,9.52
2023-12-23T08:52:12.187Z,12.55
2023-12-23T08:54:41.846Z,9.23
2023-12-23T08:57:09.585Z,12.70
2023-12-23T08:59:36.331Z,16.40
2023-12-23T09:02:05.696Z,11.38
2023-12-23T09:04:32.483Z,8.43
2023-12-23T09:06:59.446Z,9.75
2023-12-23T09:09:26.236Z,9.68
2023-12-23T09:11:53.114Z,8.32
2023-12-23T09:14:20.143Z,10.00
2023-12-23T09:16:47.146Z,6.93
2023-12-23T09:19:13.870Z,8.60
2023-12-23T09:21:40.583Z,9.20
2023-12-23T09:24:07.434Z,10.68
2023-12-23T09:26:34.088Z,10.18
2023-12-23T09:29:00.851Z,5.25
2023-12-23T09:31:27.669Z,3.80
2023-12-23T09:33:54.328Z,5.50
2023-12-23T09:36:20.999Z,8.65
2023-12-23T09:38:47.673Z,8.48
2023-12-23T09:41:15.846Z,3.58
2023-12-23T09:43:42.778Z,8.82
2023-12-23T09:46:09.862Z,5.93
2023-12-23T09:48:36.728Z,4.97
2023-12-23T09:51:04.057Z,10.98
2023-12-23T09:53:37.167Z,5.00
2023-12-23T09:56:05.033Z,5.55
2023-12-23T09:58:32.468Z,5.55
2023-12-23T10:01:00.548Z,2.47
2023-12-23T10:03:27.318Z,5.57
2023-12-23T10:05:54.397Z,3.92
2023-12-23T10:08:21.297Z,5.82
2023-12-23T10:10:49.040Z,2.72
2023-12-23T10:13:15.934Z,3.75
2023-12-23T10:15:42.856Z,4.35
2023-12-23T10:18:14.196Z,3.50
2023-12-23T10:20:43.469Z,5.53
2023-12-23T10:23:10.646Z,2.97
2023-12-23T10:25:37.435Z,3.55
2023-12-23T10:28:07.695Z,4.78
2023-12-23T10:30:41.240Z,4.68
2023-12-23T10:33:09.558Z,4.60
2023-12-23T10:35:58.812Z,4.93
2023-12-23T10:38:28.145Z,2.03
2023-12-23T10:41:17.776Z,1.75
2023-12-23T10:43:46.157Z,5.85
2023-12-23T10:46:13.960Z,2.15
2023-12-23T10:48:41.483Z,4.20
2023-12-23T10:51:09.387Z,3.80
2023-12-23T10:53:37.012Z,4.93
2023-12-23T10:56:03.848Z,4.15
2023-12-23T10:58:31.290Z,1.17
2023-12-23T11:00:59.887Z,4.45
2023-12-23T11:03:27.063Z,3.50
2023-12-23T11:05:55.981Z,2.97
2023-12-23T11:08:25.610Z,4.53
2023-12-23T11:10:53.370Z,3.55
2023-12-23T11:13:21.017Z,8.43
2023-12-23T11:15:48.465Z,4.20
2023-12-23T11:18:16.033Z,2.60
2023-12-23T11:20:42.752Z,2.53
2023-12-23T11:23:28.089Z,2.30
2023-12-23T11:25:58.331Z,1.25
2023-12-23T11:28:33.293Z,2.28
2023-12-23T11:31:01.509Z,1.85
2023-12-23T11:33:31.932Z,4.78
2023-12-23T11:36:01.453Z,1.85
2023-12-23T11:38:30.902Z,1.10
2023-12-23T11:40:58.149Z,2.53
2023-12-23T11:43:25.207Z,2.60
2023-12-23T11:45:54.072Z,8.05
2023-12-23T11:48:23.389Z,5.78
2023-12-23T11:50:55.934Z,1.42
2023-12-23T11:55:49.547Z,3.72
2023-12-23T11:58:18.034Z,1.30
2023-12-23T12:00:44.821Z,1.65
2023-12-23T12:03:11.997Z,1.33
2023-12-23T12:05:38.764Z,0.77
2023-12-23T12:08:06.120Z,1.45
2023-12-23T12:10:32.856Z,2.03
2023-12-23T12:12:59.685Z,2.90
2023-12-23T12:15:26.374Z,3.50
2023-12-23T12:17:54.333Z,1.85
2023-12-23T12:20:21.545Z,1.70
2023-12-23T12:22:50.348Z,1.25
2023-12-23T12:25:17.470Z,3.42
2023-12-23T12:27:44.666Z,1.23
2023-12-23T12:30:13.047Z,1.75
2023-12-23T12:32:45.213Z,2.08
2023-12-23T12:35:13.454Z,6.00
2023-12-23T12:37:43.405Z,1.67
2023-12-23T12:40:13.798Z,4.38
2023-12-23T12:42:52.326Z,1.60
2023-12-23T12:45:19.524Z,1.90
2023-12-23T12:47:49.440Z,5.38
2023-12-23T12:50:19.969Z,1.55
2023-12-23T12:52:48.565Z,2.60
2023-12-23T12:55:15.511Z,1.75
2023-12-23T12:57:42.634Z,7.93
2023-12-23T13:00:10.588Z,4.45
2023-12-23T13:02:37.361Z,1.23
2023-12-23T13:05:04.480Z,3.08
2023-12-23T13:07:31.581Z,3.67
2023-12-23T13:09:58.392Z,2.28
2023-12-23T13:12:25.063Z,4.45
2023-12-23T13:14:54.349Z,3.20
2023-12-23T13:17:21.255Z,1.08
2023-12-23T13:19:48.254Z,4.20
2023-12-23T13:22:15.138Z,3.42
2023-12-23T13:24:41.932Z,1.98
2023-12-23T13:27:08.630Z,6.50
2023-12-23T13:29:35.322Z,2.60
2023-12-23T13:32:02.043Z,4.70
2023-12-23T13:34:28.892Z,21.67
2023-12-23T13:36:55.570Z,32.38
2023-12-23T13:39:23.114Z,19.27
2023-12-23T13:41:49.877Z,20.70
2023-12-23T13:44:16.611Z,15.82
2023-12-23T13:46:43.290Z,20.83
2023-12-23T13:49:10.183Z,6.65
2023-12-23T13:51:37.076Z,5.57
2023-12-23T13:54:03.757Z,3.80
2023-12-23T13:56:30.478Z,3.38
2023-12-23T13:58:57.219Z,3.90
2023-12-23T14:01:23.889Z,3.28
2023-12-23T14:03:50.628Z,5.57
2023-12-23T14:06:17.321Z,2.65
2023-12-23T14:08:44.111Z,2.05
2023-12-23T14:11:10.965Z,3.35
2023-12-23T14:13:37.623Z,5.55
2023-12-23T14:16:05.464Z,6.70
2023-12-23T14:18:32.900Z,4.25
2023-12-23T14:21:00.572Z,4.78
2023-12-23T14:23:27.422Z,3.15
2023-12-23T14:25:54.169Z,5.63
2023-12-23T14:28:21.007Z,3.60
2023-12-23T14:30:47.714Z,2.95
2023-12-23T14:33:14.559Z,1.40
2023-12-23T14:35:41.284Z,2.47
2023-12-23T14:38:07.998Z,5.03
2023-12-23T14:40:34.813Z,4.07
2023-12-23T14:43:01.828Z,1.98
2023-12-23T14:45:28.685Z,2.55
2023-12-23T14:47:55.526Z,1.70
2023-12-23T14:50:23.365Z,2.92
2023-12-23T14:52:50.551Z,3.58
2023-12-23T14:55:17.813Z,6.70
2023-12-23T14:57:44.554Z,3.35
2023-12-23T15:00:11.828Z,2.67
2023-12-23T15:02:39.291Z,2.30
2023-12-23T15:05:07.305Z,5.88
2023-12-23T15:07:34.130Z,2.47
2023-12-23T15:10:01.061Z,2.85
2023-12-23T15:12:27.846Z,2.92
2023-12-23T15:14:54.503Z,3.45
2023-12-23T15:17:21.247Z,5.88
2023-12-23T15:19:48.468Z,7.60
2023-12-23T15:22:15.155Z,3.70
2023-12-23T15:24:42.012Z,4.50
2023-12-23T15:27:08.733Z,4.80
2023-12-23T15:29:35.704Z,4.63
2023-12-23T15:32:02.457Z,5.57
2023-12-23T15:34:29.353Z,4.57
2023-12-23T15:36:57.161Z,6.93
2023-12-23T15:39:24.406Z,6.40
2023-12-23T15:41:51.554Z,5.15
2023-12-23T15:44:18.320Z,5.30
2023-12-23T15:46:45.097Z,4.25
2023-12-23T15:49:11.966Z,5.07
2023-12-23T15:51:39.264Z,1.75
2023-12-23T15:54:06.325Z,6.32
2023-12-23T15:56:37.535Z,3.05
2023-12-23T15:59:04.367Z,3.60
2023-12-23T16:01:31.211Z,2.50
2023-12-23T16:03:57.930Z,4.15
2023-12-23T16:06:24.666Z,2.65
2023-12-23T16:08:51.495Z,1.77
2023-12-23T16:11:18.344Z,2.00
2023-12-23T16:13:48.838Z,2.72
2023-12-23T16:16:15.917Z,3.30
2023-12-23T16:18:42.668Z,2.17
2023-12-23T16:21:09.478Z,3.95
2023-12-23T16:23:36.188Z,3.88
2023-12-23T16:26:04.892Z,1.40
2023-12-23T16:28:32.017Z,2.95
2023-12-23T16:30:59.573Z,4.90
2023-12-23T16:33:26.398Z,2.55
2023-12-23T16:35:54.515Z,2.85
2023-12-23T16:38:21.527Z,1.70
2023-12-23T16:40:49.091Z,1.70
2023-12-23T16:43:15.881Z,4.70
2023-12-23T16:45:42.572Z,1.52
2023-12-23T16:48:09.928Z,5.20
2023-12-23T16:50:36.738Z,2.28
2023-12-23T16:53:03.558Z,2.00
2023-12-23T16:55:30.249Z,1.83
2023-12-23T16:57:57.000Z,3.20
2023-12-23T17:00:23.770Z,2.03
2023-12-23T17:02:50.791Z,4.15
2023-12-23T17:05:17.974Z,2.65
2023-12-23T17:07:44.828Z,1.48
2023-12-23T17:10:11.747Z,8.07
2023-12-23T17:12:38.542Z,5.55
2023-12-23T17:15:05.882Z,3.35
2023-12-23T17:17:32.761Z,2.15
2023-12-23T17:19:59.652Z,4.68
2023-12-23T17:22:26.941Z,4.57
2023-12-23T17:24:53.828Z,5.78
2023-12-23T17:27:20.604Z,8.10
2023-12-23T17:29:47.295Z,4.38
2023-12-23T17:32:14.147Z,5.43
2023-12-23T17:34:40.941Z,7.97
2023-12-23T17:37:07.897Z,5.25
2023-12-23T17:39:34.583Z,6.75
2023-12-23T17:42:01.276Z,7.90
2023-12-23T17:44:28.288Z,2.85
2023-12-23T17:46:56.577Z,4.15
2023-12-23T17:49:23.491Z,18.58
2023-12-23T17:51:50.215Z,8.50
2023-12-23T17:54:17.757Z,7.13
2023-12-23T17:56:46.516Z,3.97
2023-12-23T17:59:13.568Z,5.10
2023-12-23T18:01:41.142Z,7.38
2023-12-23T18:04:08.151Z,6.55
2023-12-23T18:06:34.928Z,7.53
2023-12-23T18:09:01.684Z,11.27
2023-12-23T18:11:28.484Z,3.95
2023-12-23T18:13:55.674Z,7.80
2023-12-23T18:16:22.488Z,7.80
2023-12-23T18:18:49.322Z,4.50
2023-12-23T18:21:16.836Z,5.22
2023-12-23T18:23:43.624Z,4.50
2023-12-23T18:26:10.409Z,3.35
2023-12-23T18:28:37.221Z,9.63
2023-12-23T18:31:04.084Z,8.07
2023-12-23T18:33:31.477Z,5.70
2023-12-23T18:35:58.326Z,5.45
2023-12-23T18:38:25.341Z,7.60
2023-12-23T18:40:52.129Z,4.00
2023-12-23T18:43:18.840Z,7.38
2023-12-23T18:45:46.378Z,6.80
2023-12-23T18:48:13.494Z,6.63
2023-12-23T18:50:40.258Z,11.32
2023-12-23T18:53:07.148Z,6.57
2023-12-23T18:55:34.416Z,7.72
2023-12-23T18:58:03.069Z,7.88
2023-12-23T19:00:30.022Z,7.18
2023-12-23T19:02:56.763Z,9.05
2023-12-23T19:05:23.608Z,9.20
2023-12-23T19:07:50.436Z,8.73
2023-12-23T19:10:17.268Z,6.18
2023-12-23T19:12:44.978Z,6.82
2023-12-23T19:15:11.764Z,6.40
2023-12-23T19:17:40.775Z,7.43
2023-12-23T19:20:08.718Z,8.43
2023-12-23T19:22:35.554Z,3.90
2023-12-23T19:25:04.319Z,8.52
2023-12-23T19:27:31.841Z,5.97
2023-12-23T19:29:58.668Z,6.90
2023-12-23T19:32:25.761Z,7.43
2023-12-23T19:34:52.513Z,4.95
2023-12-23T19:37:19.242Z,6.75
2023-12-23T19:39:55.758Z,3.28
2023-12-23T19:42:29.684Z,4.30
2023-12-23T19:44:56.454Z,10.40
2023-12-23T19:47:23.677Z,2.47
2023-12-23T19:49:50.401Z,5.43
2023-12-23T19:52:17.126Z,5.47
2023-12-23T19:54:43.910Z,4.18
2023-12-23T19:57:10.705Z,6.45
2023-12-23T19:59:38.733Z,2.92
2023-12-23T20:02:05.755Z,5.47
2023-12-23T20:04:32.626Z,4.38
2023-12-23T20:06:59.329Z,5.40
2023-12-23T20:09:25.995Z,6.07
2023-12-23T20:11:56.515Z,4.95
2023-12-23T20:14:23.299Z,5.97
2023-12-23T20:16:50.042Z,3.75
2023-12-23T20:19:17.850Z,6.22
2023-12-23T20:21:44.690Z,10.38
2023-12-23T20:24:12.061Z,8.90
2023-12-23T20:26:39.002Z,4.45
2023-12-23T20:29:06.257Z,7.13
2023-12-23T20:31:32.979Z,5.53
2023-12-23T20:34:03.759Z,9.27
2023-12-23T20:36:30.528Z,10.27
2023-12-23T20:38:57.210Z,7.57
2023-12-23T20:41:24.068Z,3.97
2023-12-23T20:43:50.830Z,3.72
2023-12-23T20:46:17.484Z,10.13
2023-12-23T20:48:44.399Z,3.05
2023-12-23T20:51:11.619Z,7.30
2023-12-23T20:53:38.414Z,6.70
2023-12-23T20:56:05.827Z,7.07
2023-12-23T20:58:34.381Z,6.13
2023-12-23T21:01:01.495Z,5.60
2023-12-23T21:03:28.299Z,5.60
2023-12-23T21:05:55.162Z,5.15
2023-12-23T21:08:21.995Z,6.82
2023-12-23T21:10:48.762Z,7.20
2023-12-23T21:13:15.417Z,7.43
2023-12-23T21:15:42.095Z,3.00
2023-12-23T21:18:08.848Z,6.57
2023-12-23T21:20:35.868Z,7.05
2023-12-23T21:23:02.614Z,6.53
2023-12-23T21:25:30.765Z,8.60
2023-12-23T21:27:57.440Z,4.40
2023-12-23T21:30:24.095Z,5.85
2023-12-23T21:32:51.634Z,4.43
2023-12-23T21:35:18.699Z,8.57
2023-12-23T21:37:45.428Z,3.42
2023-12-23T21:40:12.780Z,8.13
2023-12-23T21:42:39.429Z,7.60
2023-12-23T21:45:06.945Z,6.25
2023-12-23T21:47:33.671Z,9.02
2023-12-23T21:50:00.478Z,5.07
2023-12-23T21:52:27.993Z,7.85
2023-12-23T21:54:55.774Z,10.48
2023-12-23T21:57:22.527Z,9.38
2023-12-23T21:59:49.258Z,4.75
2023-12-23T22:02:16.030Z,6.45
2023-12-23T22:04:42.785Z,7.65
2023-12-23T22:07:09.468Z,3.72
2023-12-23T22:09:36.130Z,8.57
2023-12-23T22:12:02.811Z,6.35
2023-12-23T22:14:29.542Z,7.70
2023-12-23T22:16:56.323Z,5.15
2023-12-23T22:19:23.042Z,5.53
2023-12-23T22:21:49.738Z,2.05
2023-12-23T22:24:16.414Z,3.85
2023-12-23T22:26:43.184Z,5.93
2023-12-23T22:29:09.908Z,3.65
2023-12-23T22:31:36.637Z,4.05
2023-12-23T22:34:05.539Z,6.75
2023-12-23T22:36:33.827Z,4.10
2023-12-23T22:39:00.510Z,3.22
2023-12-23T22:41:28.847Z,2.85
2023-12-23T22:43:55.652Z,5.95
2023-12-23T22:46:22.414Z,3.53
2023-12-23T22:48:49.298Z,2.08
2023-12-23T22:51:16.074Z,2.80
2023-12-23T22:53:42.897Z,3.30
2023-12-23T22:56:09.726Z,4.20
2023-12-23T22:58:36.528Z,2.72
2023-12-23T23:01:04.049Z,1.75
2023-12-23T23:03:31.875Z,2.55
2023-12-23T23:05:58.833Z,2.53
2023-12-23T23:08:25.638Z,2.75
2023-12-23T23:10:52.487Z,2.63
2023-12-23T23:13:19.219Z,3.97
2023-12-23T23:15:45.956Z,1.77
2023-12-23T23:18:12.929Z,2.38
2023-12-23T23:20:40.092Z,1.80
2023-12-23T23:23:06.931Z,2.33
2023-12-23T23:25:33.697Z,2.30
2023-12-23T23:28:00.656Z,2.53
2023-12-23T23:30:27.513Z,2.78
2023-12-23T23:32:54.460Z,3.28
2023-12-23T23:35:21.989Z,2.97
2023-12-23T23:37:48.841Z,3.47
2023-12-23T23:40:15.689Z,2.28
2023-12-23T23:42:42.421Z,6.10
2023-12-23T23:45:10.372Z,3.65
2023-12-23T23:47:37.201Z,3.63
2023-12-23T23:50:07.866Z,3.00
2023-12-23T23:52:35.141Z,5.65
2023-12-23T23:55:01.862Z,4.07
2023-12-23T23:57:28.594Z,3.72
2023-12-23T23:59:55.283Z,6.22
